createdAt,value
2022-10-21T00:02:10.000Z,98120
2022-10-21T00:03:36.000Z,98119
2022-10-21T00:05:42.000Z,98120
2022-10-21T00:07:09.000Z,98114
2022-10-21T00:09:15.000Z,98115
2022-10-21T00:10:41.000Z,98111
2022-10-21T00:12:47.000Z,98115
2022-10-21T00:14:14.000Z,98116
2022-10-21T00:16:20.000Z,98125
2022-10-21T00:17:46.000Z,98118
2022-10-21T00:19:53.000Z,98105
2022-10-21T00:21:19.000Z,98103
2022-10-21T00:23:25.000Z,98101
2022-10-21T00:24:52.000Z,98108
2022-10-21T00:26:58.000Z,98105
2022-10-21T00:28:24.000Z,98109
2022-10-21T00:30:30.000Z,98100
2022-10-21T00:31:57.000Z,98108
2022-10-21T00:34:03.000Z,98108
2022-10-21T00:35:29.000Z,98105
2022-10-21T00:37:36.000Z,98109
2022-10-21T00:40:27.000Z,98111
2022-10-21T00:41:54.000Z,98103
2022-10-21T00:44:00.000Z,98086
2022-10-21T00:45:26.000Z,98082
2022-10-21T00:47:33.000Z,98082
2022-10-21T00:48:59.000Z,98077
2022-10-21T00:51:05.000Z,98076
2022-10-21T00:52:32.000Z,98076
2022-10-21T00:54:38.000Z,98068
2022-10-21T00:56:04.000Z,98060
2022-10-21T00:58:10.000Z,98052
2022-10-21T00:59:37.000Z,98049
2022-10-21T01:01:43.000Z,98043
2022-10-21T01:03:10.000Z,98036
2022-10-21T01:05:16.000Z,98021
2022-10-21T01:06:42.000Z,98023
2022-10-21T01:08:48.000Z,98019
2022-10-21T01:10:15.000Z,98017
2022-10-21T01:12:21.000Z,98017
2022-10-21T01:13:48.000Z,98020
2022-10-21T01:15:54.000Z,98029
2022-10-21T01:18:45.000Z,98021
2022-10-21T01:20:11.000Z,98031
2022-10-21T01:22:18.000Z,98035
2022-10-21T01:23:44.000Z,98039
2022-10-21T01:25:50.000Z,98037
2022-10-21T01:27:17.000Z,98032
2022-10-21T01:29:23.000Z,98036
2022-10-21T01:30:49.000Z,98039
2022-10-21T01:32:55.000Z,98044
2022-10-21T01:34:22.000Z,98039
2022-10-21T01:36:28.000Z,98045
2022-10-21T01:37:55.000Z,98043
2022-10-21T01:40:01.000Z,98040
2022-10-21T01:41:27.000Z,98037
2022-10-21T01:43:33.000Z,98028
2022-10-21T01:45:00.000Z,98022
2022-10-21T01:47:06.000Z,98025
2022-10-21T01:48:32.000Z,98017
2022-10-21T01:50:39.000Z,98016
2022-10-21T01:52:05.000Z,98020
2022-10-21T01:54:11.000Z,98019
2022-10-21T01:57:02.000Z,98014
2022-10-21T01:58:29.000Z,98015
2022-10-21T02:00:35.000Z,98004
2022-10-21T02:02:01.000Z,98000
2022-10-21T02:04:07.000Z,97998
2022-10-21T02:05:34.000Z,97993
2022-10-21T02:07:40.000Z,97988
2022-10-21T02:09:06.000Z,97990
2022-10-21T02:11:13.000Z,97986
2022-10-21T02:12:39.000Z,97984
2022-10-21T02:14:46.000Z,97974
2022-10-21T02:16:13.000Z,97968
2022-10-21T02:18:19.000Z,97973
2022-10-21T02:19:45.000Z,97971
2022-10-21T02:21:52.000Z,97962
2022-10-21T02:23:18.000Z,97962
2022-10-21T02:25:24.000Z,97960
2022-10-21T02:26:51.000Z,97958
2022-10-21T02:28:57.000Z,97953
2022-10-21T02:30:23.000Z,97953
2022-10-21T02:32:29.000Z,97950
2022-10-21T02:35:20.000Z,97946
2022-10-21T02:36:47.000Z,97944
2022-10-21T02:38:53.000Z,97940
2022-10-21T02:40:19.000Z,97942
2022-10-21T02:42:25.000Z,97944
2022-10-21T02:43:52.000Z,97935
2022-10-21T02:45:58.000Z,97928
2022-10-21T02:47:24.000Z,97934
2022-10-21T02:49:30.000Z,97927
2022-10-21T02:50:57.000Z,97928
2022-10-21T02:53:03.000Z,97928
2022-10-21T02:54:30.000Z,97929
2022-10-21T02:56:36.000Z,97929
2022-10-21T02:58:02.000Z,97929
2022-10-21T03:00:08.000Z,97927
2022-10-21T03:01:35.000Z,97933
2022-10-21T03:03:41.000Z,97929
2022-10-21T03:05:07.000Z,97923
2022-10-21T03:07:13.000Z,97926
2022-10-21T03:08:40.000Z,97930
2022-10-21T03:10:46.000Z,97934
2022-10-21T03:13:43.000Z,97926
2022-10-21T03:15:09.000Z,97924
2022-10-21T03:17:15.000Z,97926
2022-10-21T03:18:42.000Z,97924
2022-10-21T03:20:48.000Z,97922
2022-10-21T03:22:14.000Z,97921
2022-10-21T03:24:20.000Z,97926
2022-10-21T03:25:55.000Z,97934
2022-10-21T03:28:01.000Z,97934
2022-10-21T03:29:27.000Z,97933
2022-10-21T03:31:34.000Z,97932
2022-10-21T03:33:00.000Z,97933
2022-10-21T03:35:06.000Z,97933
2022-10-21T03:36:33.000Z,97928
2022-10-21T03:38:39.000Z,97921
2022-10-21T03:40:05.000Z,97919
2022-10-21T03:42:17.000Z,97915
2022-10-21T03:43:44.000Z,97910
2022-10-21T03:45:50.000Z,97906
2022-10-21T03:47:16.000Z,97908
2022-10-21T03:49:22.000Z,97912
2022-10-21T03:52:13.000Z,97909
2022-10-21T03:53:40.000Z,97907
2022-10-21T03:55:49.000Z,97903
2022-10-21T03:57:22.000Z,97903
2022-10-21T03:59:28.000Z,97908
2022-10-21T04:00:55.000Z,97908
2022-10-21T04:03:01.000Z,97900
2022-10-21T04:04:28.000Z,97903
2022-10-21T04:06:34.000Z,97897
2022-10-21T04:08:00.000Z,97890
2022-10-21T04:10:06.000Z,97883
2022-10-21T04:11:33.000Z,97885
2022-10-21T04:13:39.000Z,97883
2022-10-21T04:15:05.000Z,97885
2022-10-21T04:17:12.000Z,97888
2022-10-21T04:18:38.000Z,97882
2022-10-21T04:20:44.000Z,97881
2022-10-21T04:22:11.000Z,97889
2022-10-21T04:24:17.000Z,97892
2022-10-21T04:25:43.000Z,97890
2022-10-21T04:27:49.000Z,97893
2022-10-21T04:30:41.000Z,97892
2022-10-21T04:32:07.000Z,97894
2022-10-21T04:34:13.000Z,97882
2022-10-21T04:35:40.000Z,97880
2022-10-21T04:37:46.000Z,97880
2022-10-21T04:39:12.000Z,97883
2022-10-21T04:41:19.000Z,97876
2022-10-21T04:42:45.000Z,97871
2022-10-21T04:44:51.000Z,97871
2022-10-21T04:46:18.000Z,97874
2022-10-21T04:48:24.000Z,97874
2022-10-21T04:49:50.000Z,97873
2022-10-21T04:51:56.000Z,97871
2022-10-21T04:53:23.000Z,97873
2022-10-21T04:55:29.000Z,97861
2022-10-21T04:56:56.000Z,97857
2022-10-21T04:59:02.000Z,97859
2022-10-21T05:00:28.000Z,97856
2022-10-21T05:02:34.000Z,97857
2022-10-21T05:04:01.000Z,97851
2022-10-21T05:06:07.000Z,97848
2022-10-21T05:08:58.000Z,97855
2022-10-21T05:10:25.000Z,97855
2022-10-21T05:12:31.000Z,97853
2022-10-21T05:13:58.000Z,97850
2022-10-21T05:16:04.000Z,97842
2022-10-21T05:17:30.000Z,97838
2022-10-21T05:19:36.000Z,97837
2022-10-21T05:21:03.000Z,97839
2022-10-21T05:23:09.000Z,97840
2022-10-21T05:24:35.000Z,97832
2022-10-21T05:26:42.000Z,97835
2022-10-21T05:28:08.000Z,97834
2022-10-21T05:30:14.000Z,97832
2022-10-21T05:31:41.000Z,97835
2022-10-21T05:33:47.000Z,97840
2022-10-21T05:35:13.000Z,97834
2022-10-21T05:37:19.000Z,97832
2022-10-21T05:38:46.000Z,97831
2022-10-21T05:40:52.000Z,97826
2022-10-21T05:42:18.000Z,97830
2022-10-21T05:44:25.000Z,97835
2022-10-21T05:47:16.000Z,97840
2022-10-21T05:48:42.000Z,97837
2022-10-21T05:50:48.000Z,97838
2022-10-21T05:52:15.000Z,97840
2022-10-21T05:54:21.000Z,97839
2022-10-21T05:55:47.000Z,97837
2022-10-21T05:57:54.000Z,97835
2022-10-21T05:59:20.000Z,97830
2022-10-21T06:01:26.000Z,97825
2022-10-21T06:02:53.000Z,97829
2022-10-21T06:04:59.000Z,97826
2022-10-21T06:06:26.000Z,97823
2022-10-21T06:08:32.000Z,97825
2022-10-21T06:09:58.000Z,97824
2022-10-21T06:12:04.000Z,97826
2022-10-21T06:13:31.000Z,97828
2022-10-21T06:15:37.000Z,97827
2022-10-21T06:17:03.000Z,97826
2022-10-21T06:19:10.000Z,97828
2022-10-21T06:20:36.000Z,97831
2022-10-21T06:22:42.000Z,97831
2022-10-21T06:25:33.000Z,97828
2022-10-21T06:27:00.000Z,97834
2022-10-21T06:29:06.000Z,97838
2022-10-21T06:30:32.000Z,97836
2022-10-21T06:32:38.000Z,97831
2022-10-21T06:34:05.000Z,97826
2022-10-21T06:36:11.000Z,97828
2022-10-21T06:37:37.000Z,97822
2022-10-21T06:39:44.000Z,97829
2022-10-21T06:41:10.000Z,97832
2022-10-21T06:43:19.000Z,97836
2022-10-21T06:44:46.000Z,97838
2022-10-21T06:46:52.000Z,97842
2022-10-21T06:48:18.000Z,97843
2022-10-21T06:50:24.000Z,97843
2022-10-21T06:51:51.000Z,97843
2022-10-21T06:53:57.000Z,97845
2022-10-21T06:55:24.000Z,97840
2022-10-21T06:57:30.000Z,97845
2022-10-21T06:58:56.000Z,97842
2022-10-21T07:01:02.000Z,97844
2022-10-21T07:03:54.000Z,97842
2022-10-21T07:05:20.000Z,97842
2022-10-21T07:07:26.000Z,97849
2022-10-21T07:08:53.000Z,97849
2022-10-21T07:11:04.000Z,97849
2022-10-21T07:12:31.000Z,97853
2022-10-21T07:14:37.000Z,97855
2022-10-21T07:16:03.000Z,97856
2022-10-21T07:18:10.000Z,97846
2022-10-21T07:19:36.000Z,97847
2022-10-21T07:21:42.000Z,97846
2022-10-21T07:23:09.000Z,97849
2022-10-21T07:25:15.000Z,97858
2022-10-21T07:26:41.000Z,97860
2022-10-21T07:28:47.000Z,97856
2022-10-21T07:30:14.000Z,97849
2022-10-21T07:32:20.000Z,97852
2022-10-21T07:33:47.000Z,97854
2022-10-21T07:35:53.000Z,97855
2022-10-21T07:37:19.000Z,97860
2022-10-21T07:39:25.000Z,97864
2022-10-21T07:42:17.000Z,97856
2022-10-21T07:43:43.000Z,97867
2022-10-21T07:45:49.000Z,97876
2022-10-21T07:47:16.000Z,97878
2022-10-21T07:49:22.000Z,97877
2022-10-21T07:50:48.000Z,97871
2022-10-21T07:52:55.000Z,97869
2022-10-21T07:54:35.000Z,97870
2022-10-21T07:56:41.000Z,97880
2022-10-21T07:58:07.000Z,97884
2022-10-21T08:00:13.000Z,97883
2022-10-21T08:01:40.000Z,97881
2022-10-21T08:03:46.000Z,97880
2022-10-21T08:05:13.000Z,97873
2022-10-21T08:07:19.000Z,97876
2022-10-21T08:08:46.000Z,97874
2022-10-21T08:10:52.000Z,97874
2022-10-21T08:12:19.000Z,97874
2022-10-21T08:14:25.000Z,97876
2022-10-21T08:15:51.000Z,97873
2022-10-21T08:17:57.000Z,97869
2022-10-21T08:20:49.000Z,97866
2022-10-21T08:22:15.000Z,97865
2022-10-21T08:24:21.000Z,97870
2022-10-21T08:25:48.000Z,97876
2022-10-21T08:27:54.000Z,97880
2022-10-21T08:29:20.000Z,97875
2022-10-21T08:31:26.000Z,97880
2022-10-21T08:32:53.000Z,97886
2022-10-21T08:34:59.000Z,97886
2022-10-21T08:36:25.000Z,97882
2022-10-21T08:38:32.000Z,97884
2022-10-21T08:39:58.000Z,97880
2022-10-21T08:42:04.000Z,97885
2022-10-21T08:43:31.000Z,97883
2022-10-21T08:45:37.000Z,97879
2022-10-21T08:47:03.000Z,97884
2022-10-21T08:49:09.000Z,97882
2022-10-21T08:50:36.000Z,97884
2022-10-21T08:52:42.000Z,97885
2022-10-21T08:54:08.000Z,97884
2022-10-21T08:56:14.000Z,97884
2022-10-21T08:59:10.000Z,97885
2022-10-21T09:00:37.000Z,97884
2022-10-21T09:02:43.000Z,97885
2022-10-21T09:04:10.000Z,97890
2022-10-21T09:06:16.000Z,97888
2022-10-21T09:07:42.000Z,97889
2022-10-21T09:09:48.000Z,97891
2022-10-21T09:11:15.000Z,97890
2022-10-21T09:13:21.000Z,97888
2022-10-21T09:14:48.000Z,97889
2022-10-21T09:16:54.000Z,97892
2022-10-21T09:18:20.000Z,97893
2022-10-21T09:20:26.000Z,97891
2022-10-21T09:21:53.000Z,97889
2022-10-21T09:24:16.000Z,97885
2022-10-21T09:25:43.000Z,97882
2022-10-21T09:27:49.000Z,97880
2022-10-21T09:29:23.000Z,97884
2022-10-21T09:31:29.000Z,97885
2022-10-21T09:32:56.000Z,97881
2022-10-21T09:35:02.000Z,97876
2022-10-21T09:37:53.000Z,97878
2022-10-21T09:39:19.000Z,97876
2022-10-21T09:41:26.000Z,97872
2022-10-21T09:42:52.000Z,97873
2022-10-21T09:44:59.000Z,97875
2022-10-21T09:46:25.000Z,97877
2022-10-21T09:48:31.000Z,97875
2022-10-21T09:50:08.000Z,97868
2022-10-21T09:52:14.000Z,97857
2022-10-21T09:53:40.000Z,97859
2022-10-21T09:55:55.000Z,97858
2022-10-21T09:57:22.000Z,97865
2022-10-21T09:59:28.000Z,97868
2022-10-21T10:00:59.000Z,97868
2022-10-21T10:03:05.000Z,97865
2022-10-21T10:04:32.000Z,97874
2022-10-21T10:06:38.000Z,97876
2022-10-21T10:08:04.000Z,97873
2022-10-21T10:10:10.000Z,97876
2022-10-21T10:11:37.000Z,97877
2022-10-21T10:13:43.000Z,97877
2022-10-21T10:16:34.000Z,97873
2022-10-21T10:18:01.000Z,97875
2022-10-21T10:20:07.000Z,97873
2022-10-21T10:21:34.000Z,97877
2022-10-21T10:23:40.000Z,97875
2022-10-21T10:25:06.000Z,97878
2022-10-21T10:27:12.000Z,97881
2022-10-21T10:30:45.000Z,97878
2022-10-21T10:32:12.000Z,97874
2022-10-21T10:34:18.000Z,97876
2022-10-21T10:35:44.000Z,97872
2022-10-21T10:37:50.000Z,97869
2022-10-21T10:39:17.000Z,97868
2022-10-21T10:41:23.000Z,97872
2022-10-21T10:42:50.000Z,97877
2022-10-21T10:44:56.000Z,97880
2022-10-21T10:46:22.000Z,97882
2022-10-21T10:48:28.000Z,97874
2022-10-21T10:49:55.000Z,97870
2022-10-21T10:52:01.000Z,97865
2022-10-21T10:54:52.000Z,97864
2022-10-21T10:56:19.000Z,97866
2022-10-21T10:58:25.000Z,97868
2022-10-21T10:59:54.000Z,97871
2022-10-21T11:02:00.000Z,97869
2022-10-21T11:03:27.000Z,97868
2022-10-21T11:05:33.000Z,97867
2022-10-21T11:06:59.000Z,97867
2022-10-21T11:09:05.000Z,97867
2022-10-21T11:10:32.000Z,97867
2022-10-21T11:12:38.000Z,97864
2022-10-21T11:14:04.000Z,97864
2022-10-21T11:16:11.000Z,97861
2022-10-21T11:17:37.000Z,97860
2022-10-21T11:19:44.000Z,97865
2022-10-21T11:21:10.000Z,97866
2022-10-21T11:23:17.000Z,97860
2022-10-21T11:24:43.000Z,97859
2022-10-21T11:26:49.000Z,97859
2022-10-21T11:28:16.000Z,97857
2022-10-21T11:30:22.000Z,97861
2022-10-21T11:33:13.000Z,97862
2022-10-21T11:34:39.000Z,97858
2022-10-21T11:36:46.000Z,97859
2022-10-21T11:38:12.000Z,97855
2022-10-21T11:40:18.000Z,97854
2022-10-21T11:41:45.000Z,97850
2022-10-21T11:43:51.000Z,97850
2022-10-21T11:45:17.000Z,97853
2022-10-21T11:47:23.000Z,97851
2022-10-21T11:48:50.000Z,97857
2022-10-21T11:50:56.000Z,97849
2022-10-21T11:52:22.000Z,97849
2022-10-21T11:54:29.000Z,97853
2022-10-21T11:55:55.000Z,97850
2022-10-21T11:58:01.000Z,97852
2022-10-21T11:59:28.000Z,97851
2022-10-21T12:01:34.000Z,97850
2022-10-21T12:03:00.000Z,97850
2022-10-21T12:05:06.000Z,97852
2022-10-21T12:06:33.000Z,97845
2022-10-21T12:08:39.000Z,97844
2022-10-21T12:11:36.000Z,97840
2022-10-21T12:13:02.000Z,97838
2022-10-21T12:15:09.000Z,97827
2022-10-21T12:16:35.000Z,97824
2022-10-21T12:18:41.000Z,97823
2022-10-21T12:20:08.000Z,97825
2022-10-21T12:22:14.000Z,97829
2022-10-21T12:23:40.000Z,97834
2022-10-21T12:25:46.000Z,97836
2022-10-21T12:27:13.000Z,97834
2022-10-21T12:29:19.000Z,97849
2022-10-21T12:30:45.000Z,97850
2022-10-21T12:32:52.000Z,97855
2022-10-21T12:34:18.000Z,97851
2022-10-21T12:36:24.000Z,97847
2022-10-21T12:37:51.000Z,97845
2022-10-21T12:39:57.000Z,97848
2022-10-21T12:41:23.000Z,97850
2022-10-21T12:43:29.000Z,97842
2022-10-21T12:44:56.000Z,97845
2022-10-21T12:47:02.000Z,97841
2022-10-21T12:49:53.000Z,97834
2022-10-21T12:51:20.000Z,97838
2022-10-21T12:53:26.000Z,97837
2022-10-21T12:54:52.000Z,97835
2022-10-21T12:56:58.000Z,97842
2022-10-21T12:58:25.000Z,97839
2022-10-21T13:00:31.000Z,97847
2022-10-21T13:01:58.000Z,97851
2022-10-21T13:04:04.000Z,97855
2022-10-21T13:05:30.000Z,97859
2022-10-21T13:07:36.000Z,97860
2022-10-21T13:09:03.000Z,97855
2022-10-21T13:11:09.000Z,97832
2022-10-21T13:12:36.000Z,97829
2022-10-21T13:14:42.000Z,97855
2022-10-21T13:16:09.000Z,97859
2022-10-21T13:18:15.000Z,97851
2022-10-21T13:19:41.000Z,97851
2022-10-21T13:21:47.000Z,97854
2022-10-21T13:23:14.000Z,97851
2022-10-21T13:25:20.000Z,97855
2022-10-21T13:28:11.000Z,97854
2022-10-21T13:29:38.000Z,97852
2022-10-21T13:31:44.000Z,97853
2022-10-21T13:33:11.000Z,97849
2022-10-21T13:35:17.000Z,97856
2022-10-21T13:36:43.000Z,97856
2022-10-21T13:38:49.000Z,97853
2022-10-21T13:40:16.000Z,97854
2022-10-21T13:42:22.000Z,97854
2022-10-21T13:43:51.000Z,97854
2022-10-21T13:45:57.000Z,97852
2022-10-21T13:47:24.000Z,97856
2022-10-21T13:49:30.000Z,97860
2022-10-21T13:50:56.000Z,97860
2022-10-21T13:53:02.000Z,97869
2022-10-21T13:54:29.000Z,97869
2022-10-21T13:56:35.000Z,97872
2022-10-21T13:58:01.000Z,97876
2022-10-21T14:00:08.000Z,97879
2022-10-21T14:01:34.000Z,97874
2022-10-21T14:03:40.000Z,97880
2022-10-21T14:06:32.000Z,97889
2022-10-21T14:07:58.000Z,97889
2022-10-21T14:10:04.000Z,97889
2022-10-21T14:11:31.000Z,97890
2022-10-21T14:13:43.000Z,97881
2022-10-21T14:15:09.000Z,97887
2022-10-21T14:17:16.000Z,97886
2022-10-21T14:18:42.000Z,97895
2022-10-21T14:20:48.000Z,97894
2022-10-21T14:22:15.000Z,97893
2022-10-21T14:24:21.000Z,97896
2022-10-21T14:25:48.000Z,97903
2022-10-21T14:27:54.000Z,97905
2022-10-21T14:29:20.000Z,97897
2022-10-21T14:31:27.000Z,97894
2022-10-21T14:32:53.000Z,97895
2022-10-21T14:34:59.000Z,97899
2022-10-21T14:36:26.000Z,97899
2022-10-21T14:38:32.000Z,97903
2022-10-21T14:39:58.000Z,97901
2022-10-21T14:42:04.000Z,97897
2022-10-21T14:44:56.000Z,97896
2022-10-21T14:46:22.000Z,97891
2022-10-21T14:48:28.000Z,97892
2022-10-21T14:49:55.000Z,97894
2022-10-21T14:52:01.000Z,97897
2022-10-21T14:53:27.000Z,97900
2022-10-21T14:55:34.000Z,97900
2022-10-21T14:57:00.000Z,97893
2022-10-21T14:59:06.000Z,97886
2022-10-21T15:00:33.000Z,97883
2022-10-21T15:02:39.000Z,97873
2022-10-21T15:04:06.000Z,97867
2022-10-21T15:06:12.000Z,97859
2022-10-21T15:07:38.000Z,97864
2022-10-21T15:09:44.000Z,97868
2022-10-21T15:11:11.000Z,97868
2022-10-21T15:13:17.000Z,97872
2022-10-21T15:14:44.000Z,97872
2022-10-21T15:16:50.000Z,97872
2022-10-21T15:18:16.000Z,97873
2022-10-21T15:20:22.000Z,97880
2022-10-21T15:23:13.000Z,97882
2022-10-21T15:24:45.000Z,97882
2022-10-21T15:26:51.000Z,97880
2022-10-21T15:28:18.000Z,97885
2022-10-21T15:30:24.000Z,97883
2022-10-21T15:31:50.000Z,97884
2022-10-21T15:33:56.000Z,97884
2022-10-21T15:35:23.000Z,97881
2022-10-21T15:37:29.000Z,97874
2022-10-21T15:38:56.000Z,97869
2022-10-21T15:41:02.000Z,97864
2022-10-21T15:42:28.000Z,97863
2022-10-21T15:44:34.000Z,97865
2022-10-21T15:46:01.000Z,97866
2022-10-21T15:48:07.000Z,97864
2022-10-21T15:49:33.000Z,97865
2022-10-21T15:51:39.000Z,97865
2022-10-21T15:53:06.000Z,97866
2022-10-21T15:55:12.000Z,97864
2022-10-21T15:56:38.000Z,97867
2022-10-21T15:58:45.000Z,97865
2022-10-21T16:01:36.000Z,97867
2022-10-21T16:03:02.000Z,97867
2022-10-21T16:05:08.000Z,97869
2022-10-21T16:06:35.000Z,97875
2022-10-21T16:08:41.000Z,97871
2022-10-21T16:10:08.000Z,97871
2022-10-21T16:12:14.000Z,97873
2022-10-21T16:13:40.000Z,97870
2022-10-21T16:15:46.000Z,97864
2022-10-21T16:17:13.000Z,97870
2022-10-21T16:19:19.000Z,97873
2022-10-21T16:20:46.000Z,97871
2022-10-21T16:22:52.000Z,97870
2022-10-21T16:24:18.000Z,97870
2022-10-21T16:26:24.000Z,97866
2022-10-21T16:27:51.000Z,97876
2022-10-21T16:30:02.000Z,97874
2022-10-21T16:31:29.000Z,97878
2022-10-21T16:33:35.000Z,97875
2022-10-21T16:35:01.000Z,97875
2022-10-21T16:37:07.000Z,97871
2022-10-21T16:39:59.000Z,97862
2022-10-21T16:41:25.000Z,97857
2022-10-21T16:43:31.000Z,97856
2022-10-21T16:44:58.000Z,97856
2022-10-21T16:47:04.000Z,97859
2022-10-21T16:48:30.000Z,97858
2022-10-21T16:50:36.000Z,97865
2022-10-21T16:52:03.000Z,97866
2022-10-21T16:54:09.000Z,97877
2022-10-21T16:55:35.000Z,97878
2022-10-21T16:57:42.000Z,97880
2022-10-21T16:59:09.000Z,97882
2022-10-21T17:01:15.000Z,97882
2022-10-21T17:02:41.000Z,97882
2022-10-21T17:04:47.000Z,97887
2022-10-21T17:06:14.000Z,97883
2022-10-21T17:08:20.000Z,97881
2022-10-21T17:09:46.000Z,97884
2022-10-21T17:11:53.000Z,97887
2022-10-21T17:13:19.000Z,97889
2022-10-21T17:15:25.000Z,97892
2022-10-21T17:18:16.000Z,97892
2022-10-21T17:19:43.000Z,97893
2022-10-21T17:21:49.000Z,97895
2022-10-21T17:23:16.000Z,97899
2022-10-21T17:25:22.000Z,97905
2022-10-21T17:26:48.000Z,97902
2022-10-21T17:28:54.000Z,97903
2022-10-21T17:30:21.000Z,97902
2022-10-21T17:32:27.000Z,97902
2022-10-21T17:33:54.000Z,97907
2022-10-21T17:36:00.000Z,97909
2022-10-21T17:37:26.000Z,97908
2022-10-21T17:39:32.000Z,97907
2022-10-21T17:40:59.000Z,97905
2022-10-21T17:43:05.000Z,97912
2022-10-21T17:44:31.000Z,97918
2022-10-21T17:46:37.000Z,97925
2022-10-21T17:48:04.000Z,97925
2022-10-21T17:50:10.000Z,97921
2022-10-21T17:51:37.000Z,97919
2022-10-21T17:53:43.000Z,97916
2022-10-21T17:56:34.000Z,97912
2022-10-21T17:58:00.000Z,97917
2022-10-21T18:00:07.000Z,97918
2022-10-21T18:01:33.000Z,97917
2022-10-21T18:03:39.000Z,97917
2022-10-21T18:05:06.000Z,97917
2022-10-21T18:07:12.000Z,97917
2022-10-21T18:08:41.000Z,97921
2022-10-21T18:10:48.000Z,97917
2022-10-21T18:12:14.000Z,97922
2022-10-21T18:14:21.000Z,97925
2022-10-21T18:15:47.000Z,97926
2022-10-21T18:17:53.000Z,97924
2022-10-21T18:19:20.000Z,97922
2022-10-21T18:21:26.000Z,97921
2022-10-21T18:22:52.000Z,97925
2022-10-21T18:24:59.000Z,97919
2022-10-21T18:26:25.000Z,97921
2022-10-21T18:28:31.000Z,97915
2022-10-21T18:29:58.000Z,97917
2022-10-21T18:32:04.000Z,97914
2022-10-21T18:34:55.000Z,97913
2022-10-21T18:36:22.000Z,97914
2022-10-21T18:38:28.000Z,97918
2022-10-21T18:39:54.000Z,97922
2022-10-21T18:42:04.000Z,97922
2022-10-21T18:43:31.000Z,97920
2022-10-21T18:45:37.000Z,97916
2022-10-21T18:47:04.000Z,97916
2022-10-21T18:49:10.000Z,97918
2022-10-21T18:50:36.000Z,97911
2022-10-21T18:52:42.000Z,97914
2022-10-21T18:54:09.000Z,97911
2022-10-21T18:56:15.000Z,97908
2022-10-21T18:57:42.000Z,97906
2022-10-21T18:59:48.000Z,97913
2022-10-21T19:01:15.000Z,97907
2022-10-21T19:03:21.000Z,97907
2022-10-21T19:04:48.000Z,97909
2022-10-21T19:06:54.000Z,97915
2022-10-21T19:08:20.000Z,97915
2022-10-21T19:10:27.000Z,97906
2022-10-21T19:13:18.000Z,97906
2022-10-21T19:14:44.000Z,97903
2022-10-21T19:16:50.000Z,97894
2022-10-21T19:18:17.000Z,97895
2022-10-21T19:20:23.000Z,97900
2022-10-21T19:21:49.000Z,97903
2022-10-21T19:23:56.000Z,97906
2022-10-21T19:25:22.000Z,97906
2022-10-21T19:27:28.000Z,97901
2022-10-21T19:28:55.000Z,97901
2022-10-21T19:31:01.000Z,97904
2022-10-21T19:32:27.000Z,97902
2022-10-21T19:34:33.000Z,97895
2022-10-21T19:36:00.000Z,97892
2022-10-21T19:38:06.000Z,97898
2022-10-21T19:39:41.000Z,97903
2022-10-21T19:41:48.000Z,97908
2022-10-21T19:43:14.000Z,97915
2022-10-21T19:45:20.000Z,97923
2022-10-21T19:46:47.000Z,97928
2022-10-21T19:48:53.000Z,97936
2022-10-21T19:51:44.000Z,97939
2022-10-21T19:53:10.000Z,97934
2022-10-21T19:55:16.000Z,97925
2022-10-21T19:56:43.000Z,97925
2022-10-21T19:58:49.000Z,97926
2022-10-21T20:00:16.000Z,97933
2022-10-21T20:02:22.000Z,97937
2022-10-21T20:03:48.000Z,97942
2022-10-21T20:05:54.000Z,97949
2022-10-21T20:07:21.000Z,97950
2022-10-21T20:09:27.000Z,97951
2022-10-21T20:10:53.000Z,97957
2022-10-21T20:12:59.000Z,97970
2022-10-21T20:14:26.000Z,97984
2022-10-21T20:16:32.000Z,97985
2022-10-21T20:17:59.000Z,97988
2022-10-21T20:20:05.000Z,97983
2022-10-21T20:21:31.000Z,97983
2022-10-21T20:23:38.000Z,97988
2022-10-21T20:25:04.000Z,97986
2022-10-21T20:27:10.000Z,97983
2022-10-21T20:30:02.000Z,97972
2022-10-21T20:31:28.000Z,97967
2022-10-21T20:33:34.000Z,97966
2022-10-21T20:35:01.000Z,97963
2022-10-21T20:37:07.000Z,97962
2022-10-21T20:38:33.000Z,97957
2022-10-21T20:40:39.000Z,97955
2022-10-21T20:42:06.000Z,97954
2022-10-21T20:44:12.000Z,97946
2022-10-21T20:45:38.000Z,97949
2022-10-21T20:47:45.000Z,97945
2022-10-21T20:49:11.000Z,97947
2022-10-21T20:51:17.000Z,97947
2022-10-21T20:52:44.000Z,97950
2022-10-21T20:54:50.000Z,97949
2022-10-21T20:56:16.000Z,97956
2022-10-21T20:58:23.000Z,97953
2022-10-21T20:59:49.000Z,97951
2022-10-21T21:01:55.000Z,97951
2022-10-21T21:03:22.000Z,97949
2022-10-21T21:05:28.000Z,97952
2022-10-21T21:08:19.000Z,97945
2022-10-21T21:09:45.000Z,97944
2022-10-21T21:12:08.000Z,97950
2022-10-21T21:13:35.000Z,97944
2022-10-21T21:15:41.000Z,97945
2022-10-21T21:17:08.000Z,97946
2022-10-21T21:19:14.000Z,97946
2022-10-21T21:20:40.000Z,97945
2022-10-21T21:22:46.000Z,97944
2022-10-21T21:24:13.000Z,97947
2022-10-21T21:26:19.000Z,97953
2022-10-21T21:27:46.000Z,97956
2022-10-21T21:29:52.000Z,97956
2022-10-21T21:31:18.000Z,97955
2022-10-21T21:33:24.000Z,97957
2022-10-21T21:34:51.000Z,97961
2022-10-21T21:36:57.000Z,97967
2022-10-21T21:38:23.000Z,97967
2022-10-21T21:40:30.000Z,97956
2022-10-21T21:41:56.000Z,97956
2022-10-21T21:44:02.000Z,97961
2022-10-21T21:46:53.000Z,97973
2022-10-21T21:48:19.000Z,97973
2022-10-21T21:50:26.000Z,97966
2022-10-21T21:51:52.000Z,97959
2022-10-21T21:53:58.000Z,97954
2022-10-21T21:55:25.000Z,97949
2022-10-21T21:57:31.000Z,97947
2022-10-21T21:58:57.000Z,97950
2022-10-21T22:01:04.000Z,97934
2022-10-21T22:02:30.000Z,97918
2022-10-21T22:04:36.000Z,97908
2022-10-21T22:06:03.000Z,97910
2022-10-21T22:08:09.000Z,97917
2022-10-21T22:09:36.000Z,97913
2022-10-21T22:11:42.000Z,97914
2022-10-21T22:13:08.000Z,97912
2022-10-21T22:15:14.000Z,97910
2022-10-21T22:17:13.000Z,97927
2022-10-21T22:19:19.000Z,97933
2022-10-21T22:20:45.000Z,97928
2022-10-21T22:22:52.000Z,97919
2022-10-21T22:25:43.000Z,97911
2022-10-21T22:27:09.000Z,97917
2022-10-21T22:29:15.000Z,97915
2022-10-21T22:30:42.000Z,97913
2022-10-21T22:32:48.000Z,97921
2022-10-21T22:34:14.000Z,97930
2022-10-21T22:36:21.000Z,97940
2022-10-21T22:37:47.000Z,97940
2022-10-21T22:39:53.000Z,97943
2022-10-21T22:41:20.000Z,97955
2022-10-21T22:43:26.000Z,97960
2022-10-21T22:44:52.000Z,97951
2022-10-21T22:46:59.000Z,97940
2022-10-21T22:48:25.000Z,97937
2022-10-21T22:50:31.000Z,97935
2022-10-21T22:51:58.000Z,97937
2022-10-21T22:54:04.000Z,97939
2022-10-21T22:55:38.000Z,97934
2022-10-21T22:57:45.000Z,97935
2022-10-21T22:59:11.000Z,97931
2022-10-21T23:01:17.000Z,97939
2022-10-21T23:04:09.000Z,97939
2022-10-21T23:05:35.000Z,97935
2022-10-21T23:07:41.000Z,97936
2022-10-21T23:09:08.000Z,97934
2022-10-21T23:11:14.000Z,97939
2022-10-21T23:12:40.000Z,97940
2022-10-21T23:14:47.000Z,97940
2022-10-21T23:16:13.000Z,97938
2022-10-21T23:18:20.000Z,97936
2022-10-21T23:19:46.000Z,97929
2022-10-21T23:21:52.000Z,97925
2022-10-21T23:23:19.000Z,97919
2022-10-21T23:25:25.000Z,97915
2022-10-21T23:26:52.000Z,97916
2022-10-21T23:28:58.000Z,97924
2022-10-21T23:30:24.000Z,97926
2022-10-21T23:32:30.000Z,97925
2022-10-21T23:33:57.000Z,97927